Time;durP1;ratioP1;P1;durP2;ratioP2;P2;SDS_P1;SDS_P2;PMS_P1;PMS_P2;Temp;Humidity;BMP_temperature;BMP_pressure;BME280_temperature;BME280_humidity;BME280_pressure;Samples;Min_cycle;Max_cycle;Signal;HPM_P1;HPM_P2
2021/11/07 00:02:32;;;;;;;19.95;13.25;;;;;;;10.10;100.00;93986.09;5031255;28;20041;-80
2021/11/07 00:05:03;;;;;;;22.55;12.93;;;;;;;10.11;100.00;93981.78;5031693;28;20045;-80
2021/11/07 00:07:39;;;;;;;27.00;14.77;;;;;;;10.09;100.00;93994.03;5031117;28;20053;-80
2021/11/07 00:10:12;;;;;;;22.75;13.07;;;;;;;10.02;100.00;93981.94;5030993;28;20590;-79
2021/11/07 00:12:42;;;;;;;25.95;13.52;;;;;;;10.11;100.00;94000.56;5030705;28;20144;-79
2021/11/07 00:15:13;;;;;;;23.80;12.65;;;;;;;10.10;100.00;93998.16;5030960;28;20100;-80
2021/11/07 00:17:46;;;;;;;20.83;12.07;;;;;;;10.15;100.00;94000.97;5030956;28;20554;-79
2021/11/07 00:20:16;;;;;;;22.02;11.48;;;;;;;10.13;100.00;93997.78;5031265;28;20049;-79
2021/11/07 00:22:50;;;;;;;21.17;11.65;;;;;;;10.05;100.00;93998.75;5031236;28;20057;-80
2021/11/07 00:25:23;;;;;;;14.70;10.48;;;;;;;9.88;100.00;93988.75;5030572;28;20089;-79
2021/11/07 00:27:52;;;;;;;21.92;12.65;;;;;;;9.76;100.00;94003.03;5031079;28;20184;-79
2021/11/07 00:30:28;;;;;;;21.95;11.70;;;;;;;9.66;100.00;93997.41;5030603;28;20578;-79
2021/11/07 00:33:08;;;;;;;22.42;12.40;;;;;;;9.41;100.00;93972.94;5030862;28;20476;-79
2021/11/07 00:38:23;;;;;;;28.05;14.18;;;;;;;9.56;100.00;93993.41;5012933;28;20607;-79
2021/11/07 00:40:57;;;;;;;26.00;14.25;;;;;;;9.52;100.00;93988.81;5030758;28;20446;-79
2021/11/07 00:43:29;;;;;;;30.95;17.35;;;;;;;9.49;100.00;93983.06;5030806;28;20120;-80
2021/11/07 00:46:09;;;;;;;23.52;12.93;;;;;;;9.60;100.00;93974.09;5030236;28;20053;-79
2021/11/07 00:48:41;;;;;;;22.70;14.30;;;;;;;9.70;100.00;93973.78;5030312;28;20050;-79
2021/11/07 00:51:16;;;;;;;20.77;12.85;;;;;;;9.70;100.00;93972.97;5030618;28;20052;-80
2021/11/07 00:53:54;;;;;;;21.25;12.63;;;;;;;9.76;100.00;93977.38;5030299;28;20045;-79
2021/11/07 00:56:33;;;;;;;25.10;12.80;;;;;;;9.75;100.00;93965.53;5030368;28;20056;-79
2021/11/07 00:59:08;;;;;;;24.55;13.52;;;;;;;9.74;100.00;93967.31;5030614;28;20052;-79
2021/11/07 01:01:39;;;;;;;25.85;14.38;;;;;;;9.82;100.00;93971.50;5030294;28;20053;-79
2021/11/07 01:04:10;;;;;;;23.30;12.90;;;;;;;9.83;100.00;93964.59;5030315;28;20481;-79
2021/11/07 01:06:37;;;;;;;21.70;13.15;;;;;;;9.85;100.00;93966.00;5030358;28;20052;-79
2021/11/07 01:09:05;;;;;;;21.55;12.90;;;;;;;9.87;100.00;93964.03;5029895;28;20053;-79
2021/11/07 01:11:31;;;;;;;22.75;12.18;;;;;;;9.87;100.00;93953.78;5030219;28;20049;-81
2021/11/07 01:13:58;;;;;;;20.98;11.35;;;;;;;9.89;100.00;93956.97;5030139;28;20049;-81
2021/11/07 01:16:25;;;;;;;22.25;11.85;;;;;;;9.79;100.00;93953.91;5029888;28;20556;-82
2021/11/07 01:18:54;;;;;;;24.42;13.65;;;;;;;9.62;100.00;93956.75;5030431;28;20050;-80
2021/11/07 01:21:21;;;;;;;33.92;17.35;;;;;;;9.39;100.00;93958.72;5030041;28;20045;-80
2021/11/07 01:23:55;;;;;;;21.25;12.18;;;;;;;9.20;100.00;93948.88;5029968;28;20054;-80
2021/11/07 01:26:26;;;;;;;23.33;13.77;;;;;;;9.16;100.00;93965.59;5029960;28;20480;-80
2021/11/07 01:28:57;;;;;;;26.95;15.68;;;;;;;9.15;100.00;93952.97;5029829;28;20167;-80
2021/11/07 01:31:25;;;;;;;24.05;15.25;;;;;;;9.12;100.00;93953.34;5029608;28;20133;-81
2021/11/07 01:33:56;;;;;;;27.70;15.77;;;;;;;9.21;100.00;93949.66;5029613;28;20049;-81
2021/11/07 01:36:32;;;;;;;25.80;14.07;;;;;;;9.17;100.00;93938.22;5029730;28;20049;-81
2021/11/07 01:39:04;;;;;;;22.90;14.00;;;;;;;9.27;100.00;93954.09;5029348;28;20046;-80
2021/11/07 01:41:37;;;;;;;23.27;14.27;;;;;;;9.36;100.00;93954.75;5029407;28;20521;-80
2021/11/07 01:44:05;;;;;;;21.00;13.48;;;;;;;9.39;100.00;93953.59;5029732;28;20049;-80
2021/11/07 01:46:33;;;;;;;23.05;14.57;;;;;;;9.49;100.00;93965.13;5029431;28;20075;-80
2021/11/07 01:49:05;;;;;;;25.67;15.35;;;;;;;9.50;100.00;93950.53;5029685;28;20057;-80
2021/11/07 01:51:34;;;;;;;26.20;15.13;;;;;;;9.47;100.00;93951.69;5029734;28;20046;-81
2021/11/07 01:54:10;;;;;;;28.85;18.63;;;;;;;9.48;100.00;93944.78;5029398;28;20053;-80
2021/11/07 01:56:37;;;;;;;;;;;;;;;9.57;100.00;93959.06;5029563;28;20187;-80
2021/11/07 01:59:04;;;;;;;29.10;15.45;;;;;;;9.58;100.00;93955.53;5029642;28;20286;-79
2021/11/07 02:01:31;;;;;;;27.20;15.48;;;;;;;9.58;100.00;93954.75;5029668;28;20045;-79
2021/11/07 02:03:59;;;;;;;26.15;14.55;;;;;;;9.59;100.00;93956.34;5029263;28;20410;-79
2021/11/07 02:06:27;;;;;;;26.40;15.52;;;;;;;9.55;100.00;93955.91;5029476;28;20045;-79
2021/11/07 02:08:54;;;;;;;25.63;16.52;;;;;;;9.55;100.00;93953.34;5029317;28;20057;-79
2021/11/07 02:11:22;;;;;;;27.33;16.95;;;;;;;9.59;100.00;93956.34;5029329;28;20418;-79
2021/11/07 02:13:50;;;;;;;36.08;15.93;;;;;;;9.44;100.00;93944.34;5029175;28;20056;-79
2021/11/07 02:16:17;;;;;;;25.20;15.68;;;;;;;9.46;100.00;93936.50;5029541;28;20049;-80
2021/11/07 02:18:44;;;;;;;29.83;18.73;;;;;;;9.44;100.00;93941.78;5029345;28;20045;-80
2021/11/07 02:21:13;;;;;;;32.38;18.23;;;;;;;9.59;100.00;93943.50;5029148;28;20477;-80
2021/11/07 02:23:40;;;;;;;27.20;15.85;;;;;;;9.63;100.00;93948.06;5028880;28;20045;-80
2021/11/07 02:26:07;;;;;;;26.08;15.05;;;;;;;9.65;100.00;93941.97;5029297;28;20053;-80
2021/11/07 02:28:37;;;;;;;26.63;15.18;;;;;;;9.61;100.00;93931.28;5029177;28;20057;-80
2021/11/07 02:31:07;;;;;;;22.23;13.35;;;;;;;9.66;100.00;93935.84;5029150;28;20081;-79
2021/11/07 02:33:35;;;;;;;23.92;13.75;;;;;;;9.61;100.00;93933.84;5029171;28;20103;-79
2021/11/07 02:36:07;;;;;;;22.85;13.32;;;;;;;9.64;100.00;93938.63;5031216;28;20137;-80
2021/11/07 02:38:37;;;;;;;24.42;13.20;;;;;;;9.62;100.00;93936.22;5032873;28;20056;-81
2021/11/07 02:41:04;;;;;;;23.10;11.63;;;;;;;9.50;100.00;93922.31;5032926;28;20433;-80
2021/11/07 02:43:31;;;;;;;21.55;11.70;;;;;;;9.60;100.00;93937.41;5032983;28;20052;-81
2021/11/07 02:45:58;;;;;;;26.40;13.95;;;;;;;9.62;100.00;93946.50;5032628;28;20049;-80
2021/11/07 02:48:25;;;;;;;21.73;13.25;;;;;;;9.59;100.00;93936.59;5032834;28;20053;-80
2021/11/07 02:50:52;;;;;;;19.65;12.88;;;;;;;9.66;100.00;93946.91;5032872;28;20430;-80
2021/11/07 02:53:19;;;;;;;20.75;13.00;;;;;;;9.63;100.00;93944.72;5032687;28;20076;-80
2021/11/07 02:55:47;;;;;;;23.73;13.63;;;;;;;9.53;100.00;93934.00;5032689;28;20046;-80
2021/11/07 02:58:14;;;;;;;22.35;12.27;;;;;;;9.58;100.00;93952.19;5032769;28;20055;-80
2021/11/07 03:00:40;;;;;;;21.02;13.02;;;;;;;9.57;100.00;93945.44;5032526;28;20096;-80
2021/11/07 03:03:08;;;;;;;18.75;13.35;;;;;;;9.53;100.00;93944.25;5032662;28;20049;-81
2021/11/07 03:05:36;;;;;;;22.38;13.18;;;;;;;9.49;100.00;93949.72;5032181;28;20057;-81
2021/11/07 03:08:02;;;;;;;25.58;14.63;;;;;;;9.51;100.00;93947.00;5032358;28;20053;-81
2021/11/07 03:10:31;;;;;;;25.33;15.00;;;;;;;9.44;100.00;93941.03;5032634;28;20049;-81
2021/11/07 03:13:10;;;;;;;25.13;14.43;;;;;;;9.48;100.00;93948.16;5032422;28;20414;-80
2021/11/07 03:15:39;;;;;;;24.67;14.43;;;;;;;9.48;100.00;93953.28;5032487;28;20050;-80
2021/11/07 03:18:07;;;;;;;24.55;14.63;;;;;;;9.46;100.00;93954.44;5032141;28;20056;-80
2021/11/07 03:20:34;;;;;;;26.45;14.38;;;;;;;9.48;100.00;93943.03;5032004;28;20494;-79
2021/11/07 03:23:02;;;;;;;22.38;13.98;;;;;;;9.32;100.00;93915.88;5026888;28;20057;-79
2021/11/07 03:25:30;;;;;;;24.00;14.02;;;;;;;9.32;100.00;93921.00;5027640;28;20045;-79
2021/11/07 03:27:57;;;;;;;23.73;14.95;;;;;;;9.52;100.00;93948.56;5027544;28;20065;-79
2021/11/07 03:30:38;;;;;;;29.83;14.88;;;;;;;9.56;100.00;93946.44;5027722;28;20544;-79
2021/11/07 03:33:14;;;;;;;24.17;13.30;;;;;;;9.46;100.00;93929.59;5027961;28;20137;-79
2021/11/07 03:35:43;;;;;;;21.55;12.75;;;;;;;9.60;100.00;93945.09;5027632;28;20045;-79
2021/11/07 03:38:10;;;;;;;21.08;12.73;;;;;;;9.62;100.00;93948.25;5027543;28;20045;-79
2021/11/07 03:40:37;;;;;;;24.10;14.27;;;;;;;9.69;100.00;93951.69;5027103;28;20057;-80
2021/11/07 03:43:04;;;;;;;21.42;12.27;;;;;;;9.69;100.00;93951.69;5027603;28;20053;-80
2021/11/07 03:45:32;;;;;;;18.60;11.68;;;;;;;9.70;100.00;93943.00;5027472;28;21015;-80
2021/11/07 03:48:01;;;;;;;18.20;11.82;;;;;;;9.72;100.00;93950.53;5026392;28;20056;-79
2021/11/07 03:50:28;;;;;;;21.58;11.10;;;;;;;9.69;100.00;93945.75;5027191;28;20510;-80
2021/11/07 03:52:56;;;;;;;17.77;11.45;;;;;;;9.56;100.00;93918.22;5027121;28;20549;-80
2021/11/07 03:55:23;;;;;;;20.92;11.75;;;;;;;9.68;100.00;93950.06;5027378;28;20515;-80
2021/11/07 03:57:50;;;;;;;25.27;13.15;;;;;;;9.70;100.00;93971.22;5027549;28;20049;-80
2021/11/07 04:00:19;;;;;;;18.10;12.00;;;;;;;9.71;100.00;93954.03;5027298;28;20049;-80
2021/11/07 04:02:48;;;;;;;22.60;11.43;;;;;;;9.68;100.00;93949.28;5027220;28;20556;-79
2021/11/07 04:05:15;;;;;;;23.48;13.63;;;;;;;9.48;100.00;93939.66;5027289;28;20046;-79
2021/11/07 04:07:42;;;;;;;21.95;13.88;;;;;;;9.32;100.00;93912.50;5027333;28;20045;-79
2021/11/07 04:10:11;;;;;;;24.52;13.32;;;;;;;9.43;100.00;93949.66;5026905;28;20058;-80
2021/11/07 04:12:38;;;;;;;25.50;14.10;;;;;;;9.47;100.00;93944.00;5027123;28;20077;-79
2021/11/07 04:15:07;;;;;;;25.60;14.95;;;;;;;9.43;100.00;93931.72;5026603;28;20095;-80
2021/11/07 04:17:34;;;;;;;33.15;17.63;;;;;;;9.42;100.00;93936.06;5027458;28;20041;-80
2021/11/07 04:20:03;;;;;;;25.48;13.43;;;;;;;9.48;100.00;93950.72;5027121;28;20042;-80
2021/11/07 04:22:30;;;;;;;75.15;60.80;;;;;;;9.43;100.00;93927.41;5026492;28;20050;-80
2021/11/07 04:24:57;;;;;;;99.22;67.32;;;;;;;9.36;100.00;93922.19;5026492;28;20060;-80
2021/11/07 04:27:24;;;;;;;77.13;51.83;;;;;;;9.29;100.00;93925.69;5026365;28;20049;-80
2021/11/07 04:29:51;;;;;;;92.28;66.95;;;;;;;9.40;100.00;93929.53;5026615;28;20123;-81
2021/11/07 04:32:19;;;;;;;104.22;73.03;;;;;;;9.45;100.00;93932.34;5026618;28;20038;-80
2021/11/07 04:34:46;;;;;;;80.65;56.72;;;;;;;9.46;100.00;93937.28;5026460;28;20038;-80
2021/11/07 04:37:14;;;;;;;67.72;48.25;;;;;;;9.47;100.00;93938.88;5026516;28;20045;-81
2021/11/07 04:39:41;;;;;;;67.53;48.03;;;;;;;9.48;100.00;93939.66;5026295;28;20056;-81
2021/11/07 04:42:10;;;;;;;54.75;40.67;;;;;;;9.29;100.00;93930.81;5026240;28;20045;-79
2021/11/07 04:44:37;;;;;;;46.90;32.47;;;;;;;9.33;100.00;93925.16;5026184;28;20541;-79
2021/11/07 04:47:05;;;;;;;38.10;23.05;;;;;;;9.35;100.00;93920.63;5026230;28;20050;-80
2021/11/07 04:49:31;;;;;;;32.38;18.23;;;;;;;9.30;100.00;93917.03;5026572;28;20175;-80
2021/11/07 04:51:59;;;;;;;32.05;17.58;;;;;;;9.26;100.00;93934.53;5025555;28;20087;-80
2021/11/07 04:54:28;;;;;;;35.08;19.40;;;;;;;9.22;100.00;93944.34;5026113;28;20608;-79
2021/11/07 04:56:55;;;;;;;39.65;25.20;;;;;;;9.22;100.00;93946.16;5026155;28;20471;-79
2021/11/07 04:59:22;;;;;;;40.22;24.67;;;;;;;9.25;100.00;93956.03;5025973;28;20045;-79
2021/11/07 05:01:49;;;;;;;46.08;31.17;;;;;;;8.81;100.00;93963.63;5026116;28;20045;-79
2021/11/07 05:04:16;;;;;;;39.67;24.00;;;;;;;8.84;100.00;93952.25;5025869;28;20045;-80
2021/11/07 05:06:44;;;;;;;39.72;23.23;;;;;;;8.71;100.00;93950.34;5026018;28;20053;-79
2021/11/07 05:09:10;;;;;;;41.25;21.13;;;;;;;8.73;100.00;93933.03;5026175;28;20107;-79
2021/11/07 05:11:39;;;;;;;32.40;19.63;;;;;;;8.77;100.00;93934.25;5025419;28;20045;-81
2021/11/07 05:14:05;;;;;;;31.48;19.80;;;;;;;8.80;100.00;93928.75;5025616;28;20049;-81
2021/11/07 05:16:32;;;;;;;35.45;20.88;;;;;;;8.67;100.00;93919.16;5025810;28;20057;-81
2021/11/07 05:18:59;;;;;;;36.58;20.92;;;;;;;8.73;100.00;93911.72;5025766;28;20552;-81
2021/11/07 05:21:26;;;;;;;36.42;22.27;;;;;;;8.90;100.00;93922.56;5025632;28;20056;-81
2021/11/07 05:23:53;;;;;;;35.00;21.17;;;;;;;9.06;100.00;93939.47;5025983;28;20052;-81
2021/11/07 05:26:20;;;;;;;37.22;20.92;;;;;;;9.13;100.00;93934.41;5026103;28;20438;-80
2021/11/07 05:28:48;;;;;;;38.17;20.08;;;;;;;9.13;100.00;93930.09;5024679;28;20049;-80
2021/11/07 05:31:15;;;;;;;39.05;20.30;;;;;;;9.25;100.00;93937.28;5025333;28;20073;-80
2021/11/07 05:33:42;;;;;;;34.95;18.58;;;;;;;9.27;100.00;93937.91;5025770;28;20068;-80
2021/11/07 05:36:10;;;;;;;35.55;19.48;;;;;;;9.28;100.00;93942.03;5025409;28;20115;-81
2021/11/07 05:38:37;;;;;;;38.58;21.42;;;;;;;9.18;100.00;93927.78;5025526;28;20069;-81
2021/11/07 05:41:04;;;;;;;42.17;21.60;;;;;;;9.23;100.00;93933.13;5025214;28;20498;-81
2021/11/07 05:43:31;;;;;;;35.95;21.67;;;;;;;9.12;100.00;93933.59;5025012;28;20088;-80
2021/11/07 05:45:59;;;;;;;44.45;23.85;;;;;;;8.93;100.00;93922.19;5025348;28;20049;-79
2021/11/07 05:48:26;;;;;;;33.05;17.45;;;;;;;9.00;100.00;93929.94;5025281;28;20414;-79
2021/11/07 05:50:53;;;;;;;37.42;20.98;;;;;;;9.15;100.00;93938.38;5024961;28;20534;-80
2021/11/07 05:53:20;;;;;;;34.50;20.02;;;;;;;9.23;100.00;93953.63;5025290;28;20041;-79
2021/11/07 05:55:47;;;;;;;41.03;19.80;;;;;;;9.28;100.00;93944.59;5025003;28;20457;-78
2021/11/07 05:58:14;;;;;;;39.92;22.17;;;;;;;9.33;100.00;93949.97;5025408;28;20066;-79
2021/11/07 06:00:41;;;;;;;43.25;22.30;;;;;;;9.16;100.00;93921.25;5025697;28;20053;-80
2021/11/07 06:03:09;;;;;;;39.88;23.80;;;;;;;9.46;100.00;93952.69;5025100;28;20454;-80
2021/11/07 06:05:37;;;;;;;37.03;24.15;;;;;;;9.44;100.00;93946.16;5025033;28;20132;-80
2021/11/07 06:08:05;;;;;;;30.60;18.10;;;;;;;9.56;100.00;93949.81;5025230;28;20045;-79
2021/11/07 06:10:32;;;;;;;40.75;24.63;;;;;;;9.58;100.00;93947.84;5024631;28;20049;-80
2021/11/07 06:12:58;;;;;;;91.90;66.95;;;;;;;9.53;100.00;93946.81;5024931;28;20048;-79
2021/11/07 06:15:25;;;;;;;67.78;43.55;;;;;;;9.52;100.00;93942.63;5024908;28;20523;-79
2021/11/07 06:17:52;;;;;;;49.63;33.17;;;;;;;9.49;100.00;93938.66;5025131;28;20053;-79
2021/11/07 06:20:20;;;;;;;42.63;25.88;;;;;;;9.58;100.00;93952.97;5025038;28;20570;-79
2021/11/07 06:22:47;;;;;;;43.10;25.70;;;;;;;9.63;100.00;93957.56;5025144;28;20041;-79
2021/11/07 06:25:15;;;;;;;35.15;23.73;;;;;;;9.60;100.00;93955.34;5023568;28;20467;-79
2021/11/07 06:27:42;;;;;;;33.35;20.23;;;;;;;9.42;100.00;93930.94;5021834;28;20041;-79
2021/11/07 06:30:11;;;;;;;29.52;18.08;;;;;;;9.54;100.00;93948.41;5023022;28;20049;-79
2021/11/07 06:32:39;;;;;;;32.50;18.02;;;;;;;9.72;100.00;93963.34;5024377;28;20053;-79
2021/11/07 06:35:10;;;;;;;30.88;18.08;;;;;;;9.79;100.00;93963.38;5024681;28;20510;-79
2021/11/07 06:37:38;;;;;;;29.17;18.90;;;;;;;9.85;100.00;93957.50;5024443;28;20058;-79
2021/11/07 06:40:06;;;;;;;34.92;19.67;;;;;;;10.04;100.00;93961.19;5024925;28;20061;-79
2021/11/07 06:42:33;;;;;;;30.15;18.88;;;;;;;10.19;100.00;93976.50;5024676;28;20498;-79
2021/11/07 06:45:00;;;;;;;30.23;19.50;;;;;;;10.13;100.00;93942.09;5024594;28;20045;-79
2021/11/07 06:47:28;;;;;;;33.78;18.63;;;;;;;10.47;100.00;93970.59;5024223;28;20045;-79
2021/11/07 06:49:55;;;;;;;27.38;19.33;;;;;;;10.59;100.00;93973.38;5024455;28;20056;-79
2021/11/07 06:52:22;;;;;;;27.45;18.30;;;;;;;10.63;100.00;93971.22;5024576;28;20140;-79
2021/11/07 06:54:50;;;;;;;35.92;19.27;;;;;;;10.79;100.00;93982.97;5024703;28;20037;-79
2021/11/07 06:57:17;;;;;;;30.50;18.80;;;;;;;10.76;100.00;93966.16;5024216;28;20092;-79
2021/11/07 06:59:44;;;;;;;32.10;18.33;;;;;;;10.78;100.00;93979.59;5024308;28;20049;-79
2021/11/07 07:02:12;;;;;;;35.03;19.27;;;;;;;10.71;100.00;93983.94;5024646;28;20510;-79
2021/11/07 07:04:39;;;;;;;34.33;18.83;;;;;;;10.78;100.00;93977.03;5024350;28;20049;-79
2021/11/07 07:07:06;;;;;;;33.95;18.55;;;;;;;10.88;100.00;93979.22;5024606;28;20050;-79
2021/11/07 07:09:41;;;;;;;32.25;19.25;;;;;;;10.92;100.00;93971.97;5024663;28;20052;-79
2021/11/07 07:12:15;;;;;;;33.83;19.55;;;;;;;11.03;100.00;93980.88;5024279;28;20056;-79
2021/11/07 07:14:48;;;;;;;55.13;26.65;;;;;;;11.08;100.00;93981.88;5024579;28;20049;-79
2021/11/07 07:17:23;;;;;;;58.13;27.75;;;;;;;11.12;100.00;93969.44;5024619;28;20474;-79
2021/11/07 07:23:06;;;;;;;64.07;33.88;;;;;;;11.29;100.00;93979.38;4998616;28;20258;-79
2021/11/07 07:28:31;;;;;;;32.63;21.95;;;;;;;11.40;100.00;93968.50;5025908;28;20057;-79
2021/11/07 07:33:45;;;;;;;37.53;22.05;;;;;;;11.65;100.00;93967.94;5019940;28;20052;-79
2021/11/07 07:36:12;;;;;;;34.92;20.30;;;;;;;11.71;100.00;93959.41;5027579;28;20041;-79
2021/11/07 07:38:39;;;;;;;40.08;23.05;;;;;;;11.84;100.00;93965.56;5027195;28;20510;-79
2021/11/07 07:41:06;;;;;;;37.33;21.75;;;;;;;11.92;100.00;93960.22;5027436;28;20037;-79
2021/11/07 07:43:34;;;;;;;39.60;22.50;;;;;;;12.06;100.00;93958.47;5027214;28;20049;-79
2021/11/07 07:46:04;;;;;;;38.35;21.60;;;;;;;12.24;100.00;93965.56;5027535;28;20049;-79
2021/11/07 07:48:39;;;;;;;39.03;21.95;;;;;;;12.36;100.00;93962.38;4382236;28;5002405;-79
2021/11/07 07:51:05;;;;;;;36.42;20.48;;;;;;;12.51;100.00;93965.50;5045861;28;20170;-79
2021/11/07 07:53:33;;;;;;;35.70;18.27;;;;;;;12.63;100.00;93970.03;5037426;28;20046;-79
2021/11/07 07:56:00;;;;;;;35.83;17.92;;;;;;;12.73;100.00;93972.19;5036624;28;20044;-80
2021/11/07 07:58:27;;;;;;;36.40;19.05;;;;;;;12.73;100.00;93969.59;5037239;28;20155;-80
2021/11/07 08:00:55;;;;;;;43.38;21.90;;;;;;;12.53;100.00;93929.22;5037143;28;20053;-79
2021/11/07 08:03:22;;;;;;;37.50;21.27;;;;;;;12.86;100.00;93971.34;5037368;28;20050;-79
2021/11/07 08:05:49;;;;;;;43.83;22.55;;;;;;;12.96;100.00;93967.31;5036816;28;20702;-79
2021/11/07 08:08:16;;;;;;;45.88;22.67;;;;;;;13.01;100.00;93971.84;5037032;28;20091;-79
2021/11/07 08:10:43;;;;;;;48.92;25.00;;;;;;;12.86;100.00;93961.03;5036902;28;20476;-79
2021/11/07 08:13:10;;;;;;;48.63;23.35;;;;;;;13.06;100.00;93968.69;5036777;28;20045;-79
2021/11/07 08:15:37;;;;;;;43.63;22.70;;;;;;;13.14;100.00;93971.00;5036926;28;20185;-80
2021/11/07 08:18:05;;;;;;;47.22;21.95;;;;;;;13.12;100.00;93930.94;5037069;28;20060;-79
2021/11/07 08:20:32;;;;;;;49.22;22.98;;;;;;;13.29;100.00;93947.50;5037050;28;20049;-80
2021/11/07 08:22:59;;;;;;;42.88;22.45;;;;;;;13.44;100.00;93947.22;5036434;28;20041;-80
2021/11/07 08:25:26;;;;;;;41.28;22.58;;;;;;;13.59;100.00;93944.38;5036347;28;20055;-79
2021/11/07 08:27:58;;;;;;;38.60;21.38;;;;;;;13.73;100.00;93932.16;5006399;28;20045;-79
2021/11/07 08:30:26;;;;;;;42.85;22.15;;;;;;;13.85;100.00;93924.50;5033555;28;20041;-80
2021/11/07 08:32:53;;;;;;;43.90;22.20;;;;;;;14.02;100.00;93927.34;5034543;28;20494;-79
2021/11/07 08:35:22;;;;;;;45.28;20.65;;;;;;;14.01;100.00;93919.78;5025762;28;20395;-79
2021/11/07 08:37:53;;;;;;;44.92;21.13;;;;;;;14.25;100.00;93922.53;5034501;28;20045;-79
2021/11/07 08:40:25;;;;;;;49.03;23.02;;;;;;;14.41;100.00;93909.03;5036187;28;20053;-79
2021/11/07 08:42:58;;;;;;;60.08;28.83;;;;;;;14.54;100.00;93889.25;5036494;28;20049;-79
2021/11/07 09:02:11;;;;;;;72.07;34.28;;;;;;;16.03;96.96;93862.00;5036208;28;20095;-80
2021/11/07 09:04:42;;;;;;;76.57;36.30;;;;;;;16.26;95.70;93855.22;5035613;28;20049;-80
2021/11/07 09:07:17;;;;;;;67.38;31.00;;;;;;;16.43;94.57;93850.09;5035841;28;20080;-80
2021/11/07 09:09:45;;;;;;;60.72;27.38;;;;;;;16.57;93.20;93848.00;5035492;28;20046;-80
2021/11/07 09:12:13;;;;;;;61.60;26.50;;;;;;;16.64;91.55;93838.31;5035477;28;20045;-80
2021/11/07 09:14:41;;;;;;;59.00;25.65;;;;;;;16.72;89.52;93839.75;5035255;28;20053;-80
2021/11/07 09:17:09;;;;;;;66.95;29.10;;;;;;;16.66;89.71;93843.28;5035981;28;20379;-80
2021/11/07 09:19:38;;;;;;;69.85;27.38;;;;;;;16.35;89.56;93829.72;5036401;28;20099;-80
2021/11/07 09:22:09;;;;;;;54.15;23.92;;;;;;;15.89;91.85;93812.22;5035696;28;20461;-79
2021/11/07 09:24:42;;;;;;;54.22;22.15;;;;;;;16.07;93.04;93820.88;5035178;28;20153;-80
2021/11/07 09:27:15;;;;;;;50.92;23.15;;;;;;;16.04;92.97;93824.72;5035414;28;20037;-79
2021/11/07 09:29:55;;;;;;;50.95;23.45;;;;;;;16.13;92.31;93827.75;5035444;28;20049;-79
2021/11/07 09:35:21;;;;;;;43.25;18.88;;;;;;;16.00;92.61;93829.56;5034779;28;20543;-80
2021/11/07 09:37:52;;;;;;;44.03;17.42;;;;;;;16.26;94.13;93816.34;5036224;28;20107;-81
2021/11/07 09:40:23;;;;;;;30.10;12.63;;;;;;;16.07;89.87;93834.63;5036181;28;20476;-80
2021/11/07 09:43:08;;;;;;;28.33;12.80;;;;;;;16.24;90.59;93831.34;5036246;28;20076;-80
2021/11/07 09:45:44;;;;;;;34.90;14.32;;;;;;;16.43;91.44;93824.97;5034583;28;20072;-79
2021/11/07 09:48:14;;;;;;;;;;;;;;;16.77;91.84;93815.69;5035855;28;20158;-80
2021/11/07 09:50:44;;;;;;;38.97;15.40;;;;;;;16.91;90.13;93813.59;5035575;28;19929;-80
2021/11/07 09:53:11;;;;;;;34.72;14.68;;;;;;;17.07;89.02;93807.66;5035254;28;20517;-80
2021/11/07 09:55:40;;;;;;;39.25;17.60;;;;;;;16.88;90.21;93799.28;5035394;28;20041;-80
2021/11/07 09:58:07;;;;;;;38.03;17.80;;;;;;;17.02;91.50;93804.16;5035285;28;20052;-80
2021/11/07 10:00:39;;;;;;;44.20;18.73;;;;;;;16.93;90.38;93781.19;5035283;28;20080;-80
2021/11/07 10:03:06;;;;;;;37.92;17.95;;;;;;;17.29;90.90;93800.97;5035937;28;20049;-80
2021/11/07 10:05:37;;;;;;;33.20;17.42;;;;;;;17.43;89.89;93788.44;5035634;28;20057;-80
2021/11/07 10:08:06;;;;;;;47.53;19.45;;;;;;;17.55;88.82;93802.13;5035013;28;20128;-79
2021/11/07 10:10:38;;;;;;;39.03;18.85;;;;;;;17.69;87.43;93792.19;5035117;28;20056;-79
2021/11/07 10:13:13;;;;;;;37.42;16.88;;;;;;;17.91;86.81;93786.22;5034427;28;20414;-80
2021/11/07 10:15:44;;;;;;;30.33;15.43;;;;;;;17.68;85.87;93771.66;5034733;28;20071;-79
2021/11/07 10:18:14;;;;;;;32.67;16.50;;;;;;;17.63;87.81;93772.38;5034913;28;20301;-79
2021/11/07 10:20:45;;;;;;;33.75;15.43;;;;;;;17.75;88.43;93751.47;5035197;28;20075;-79
2021/11/07 10:23:16;;;;;;;35.35;16.02;;;;;;;18.10;87.96;93755.56;5035355;28;20499;-79
2021/11/07 10:25:48;;;;;;;37.95;16.98;;;;;;;18.34;86.88;93755.31;5034806;28;20446;-80
2021/11/07 10:28:21;;;;;;;32.33;15.75;;;;;;;18.16;86.77;93735.59;5034599;28;20141;-79
2021/11/07 10:31:03;;;;;;;34.13;15.55;;;;;;;18.58;84.39;93755.00;5034540;28;20045;-79
2021/11/07 10:34:00;;;;;;;30.42;15.25;;;;;;;18.49;85.57;93738.25;5034887;28;20480;-79
2021/11/07 10:45:11;;;;;;;33.53;13.90;;;;;;;18.35;84.75;93712.66;5034783;28;20441;-79
2021/11/07 10:48:12;;;;;;;32.83;14.93;;;;;;;18.34;83.83;93703.28;5034075;28;20058;-79
2021/11/07 10:53:26;;;;;;;28.30;13.77;;;;;;;18.61;82.52;93676.44;5034602;28;20056;-79
2021/11/07 10:55:54;;;;;;;58.20;23.88;;;;;;;19.07;86.06;93699.47;5034403;28;20046;-80
2021/11/07 10:58:27;;;;;;;63.97;27.98;;;;;;;19.23;83.56;93660.50;5038170;28;20055;-80
2021/11/07 11:00:56;;;;;;;34.55;17.98;;;;;;;19.75;82.55;93682.34;5038321;28;20133;-80
2021/11/07 11:03:25;;;;;;;30.48;15.05;;;;;;;20.03;79.76;93674.38;5038965;28;20098;-80
2021/11/07 11:05:57;;;;;;;39.88;17.20;;;;;;;20.28;77.72;93670.25;5038273;28;20060;-80
2021/11/07 11:08:28;;;;;;;36.40;16.00;;;;;;;20.33;75.27;93633.75;5037429;28;20056;-81
2021/11/07 11:11:01;;;;;;;33.35;12.80;;;;;;;20.75;71.73;93652.00;5038575;28;20051;-81
2021/11/07 11:13:36;;;;;;;38.03;13.90;;;;;;;20.99;68.40;93651.47;5038788;28;20053;-81
2021/11/07 11:21:57;;;;;;;24.48;10.25;;;;;;;21.32;61.45;93647.50;5037686;28;20045;-82
2021/11/07 11:27:20;;;;;;;29.10;13.80;;;;;;;21.33;61.22;93624.75;5038025;28;20052;-81
2021/11/07 11:29:58;;;;;;;23.63;8.82;;;;;;;21.42;60.79;93628.38;5038072;28;20135;-81
2021/11/07 11:32:36;;;;;;;28.65;11.93;;;;;;;21.40;58.97;93614.00;5037738;28;20140;-81
2021/11/07 11:35:06;;;;;;;23.10;9.52;;;;;;;21.40;58.86;93599.13;5038122;28;20065;-81
2021/11/07 11:37:41;;;;;;;27.25;7.70;;;;;;;21.49;60.13;93609.81;5037581;28;20058;-81
2021/11/07 11:40:14;;;;;;;10.25;5.85;;;;;;;21.39;59.60;93596.78;5037237;28;20049;-81
2021/11/07 11:42:48;;;;;;;14.23;5.07;;;;;;;21.49;60.01;93601.97;5037901;28;20056;-81
2021/11/07 11:45:20;;;;;;;11.80;7.13;;;;;;;21.48;59.00;93595.94;5037550;28;20048;-81
2021/11/07 11:48:04;;;;;;;15.60;5.72;;;;;;;21.49;59.23;93586.28;5037599;28;20054;-81
2021/11/07 11:50:52;;;;;;;16.80;5.97;;;;;;;21.54;59.29;93595.91;5037333;28;20045;-81
2021/11/07 11:56:22;;;;;;;9.93;4.68;;;;;;;21.60;58.15;93569.50;5036780;28;20508;-82
2021/11/07 11:58:55;;;;;;;8.95;4.43;;;;;;;21.74;56.89;93568.91;5027612;28;20041;-81
2021/11/07 12:01:24;;;;;;;12.95;4.03;;;;;;;21.88;57.63;93571.72;5036679;28;20041;-81
2021/11/07 12:04:12;;;;;;;9.85;3.70;;;;;;;22.10;55.67;93581.78;5036968;28;20426;-81
2021/11/07 12:06:47;;;;;;;10.70;3.72;;;;;;;22.22;55.45;93581.41;5037389;28;20045;-81
2021/11/07 12:12:08;;;;;;;13.55;4.72;;;;;;;22.38;55.33;93571.63;5034386;28;20219;-82
2021/11/07 12:14:55;;;;;;;12.60;4.10;;;;;;;22.40;55.15;93566.88;5036823;28;20052;-82
2021/11/07 12:17:27;;;;;;;9.75;4.15;;;;;;;22.37;54.71;93562.22;5036565;28;20044;-81
2021/11/07 12:19:55;;;;;;;9.63;4.75;;;;;;;22.49;54.61;93567.06;5036714;28;20052;-81
2021/11/07 12:22:24;;;;;;;8.93;4.68;;;;;;;22.48;55.39;93551.63;5033454;28;20053;-82
2021/11/07 12:25:08;;;;;;;19.50;4.05;;;;;;;22.48;55.04;93547.19;5034663;28;20111;-82
2021/11/07 12:27:41;;;;;;;13.20;5.57;;;;;;;22.60;55.27;93559.16;5036404;28;20048;-82